sensor_id;sensor_type;location;lat;lon;timestamp;temperature;humidity
16160;DHT22;8185;57.818;15.224;2023-04-06T00:00:41;-0.90;99.90
16160;DHT22;8185;57.818;15.224;2023-04-06T00:03:08;-1.00;99.90
16160;DHT22;8185;57.818;15.224;2023-04-06T00:05:37;-1.10;99.90
16160;DHT22;8185;57.818;15.224;2023-04-06T00:08:04;-1.20;99.90
16160;DHT22;8185;57.818;15.224;2023-04-06T00:10:31;-1.30;99.90
16160;DHT22;8185;57.818;15.224;2023-04-06T00:12:59;-1.30;99.90
16160;DHT22;8185;57.818;15.224;2023-04-06T00:15:27;-1.40;99.90
16160;DHT22;8185;57.818;15.224;2023-04-06T00:17:54;-1.40;99.90
16160;DHT22;8185;57.818;15.224;2023-04-06T00:20:22;-1.50;99.90
16160;DHT22;8185;57.818;15.224;2023-04-06T00:22:50;-1.50;99.90
16160;DHT22;8185;57.818;15.224;2023-04-06T00:25:18;-1.60;99.90
16160;DHT22;8185;57.818;15.224;2023-04-06T00:27:45;-1.60;99.90
16160;DHT22;8185;57.818;15.224;2023-04-06T00:30:12;-1.70;99.90
16160;DHT22;8185;57.818;15.224;2023-04-06T00:32:39;-1.80;99.90
16160;DHT22;8185;57.818;15.224;2023-04-06T00:35:07;-1.80;99.90
16160;DHT22;8185;57.818;15.224;2023-04-06T00:37:34;-1.80;99.90
16160;DHT22;8185;57.818;15.224;2023-04-06T00:40:03;-1.80;99.90
16160;DHT22;8185;57.818;15.224;2023-04-06T00:42:30;-1.80;99.90
16160;DHT22;8185;57.818;15.224;2023-04-06T00:44:59;-1.90;99.90
16160;DHT22;8185;57.818;15.224;2023-04-06T00:47:27;-1.90;99.90
16160;DHT22;8185;57.818;15.224;2023-04-06T00:49:54;-2.00;99.90
16160;DHT22;8185;57.818;15.224;2023-04-06T00:52:22;-2.10;99.90
16160;DHT22;8185;57.818;15.224;2023-04-06T00:54:49;-2.20;99.90
16160;DHT22;8185;57.818;15.224;2023-04-06T00:57:18;-2.20;99.90
16160;DHT22;8185;57.818;15.224;2023-04-06T00:59:46;-2.20;99.90
16160;DHT22;8185;57.818;15.224;2023-04-06T01:02:13;-2.20;99.90
16160;DHT22;8185;57.818;15.224;2023-04-06T01:04:40;-2.00;99.90
16160;DHT22;8185;57.818;15.224;2023-04-06T01:07:08;-1.90;99.90
16160;DHT22;8185;57.818;15.224;2023-04-06T01:09:35;-1.90;99.90
16160;DHT22;8185;57.818;15.224;2023-04-06T01:12:02;-1.90;99.90
16160;DHT22;8185;57.818;15.224;2023-04-06T01:14:31;-1.90;99.90
16160;DHT22;8185;57.818;15.224;2023-04-06T01:16:58;-1.80;99.90
16160;DHT22;8185;57.818;15.224;2023-04-06T01:19:27;-1.80;99.90
16160;DHT22;8185;57.818;15.224;2023-04-06T01:21:55;-1.70;99.90
16160;DHT22;8185;57.818;15.224;2023-04-06T01:24:23;-1.60;99.90
16160;DHT22;8185;57.818;15.224;2023-04-06T01:26:50;-1.60;99.90
16160;DHT22;8185;57.818;15.224;2023-04-06T01:29:18;-1.60;99.90
16160;DHT22;8185;57.818;15.224;2023-04-06T01:31:45;-1.60;99.90
16160;DHT22;8185;57.818;15.224;2023-04-06T01:34:12;-1.60;99.90
16160;DHT22;8185;57.818;15.224;2023-04-06T01:36:39;-1.60;99.90
16160;DHT22;8185;57.818;15.224;2023-04-06T01:39:07;-1.50;99.90
16160;DHT22;8185;57.818;15.224;2023-04-06T01:41:35;-1.50;99.90
16160;DHT22;8185;57.818;15.224;2023-04-06T01:44:02;-1.50;99.90
16160;DHT22;8185;57.818;15.224;2023-04-06T01:46:30;-1.50;99.90
16160;DHT22;8185;57.818;15.224;2023-04-06T01:48:57;-1.50;99.90
16160;DHT22;8185;57.818;15.224;2023-04-06T01:51:24;-1.50;99.90
16160;DHT22;8185;57.818;15.224;2023-04-06T01:53:52;-1.50;99.90
16160;DHT22;8185;57.818;15.224;2023-04-06T01:56:19;-1.50;99.90
16160;DHT22;8185;57.818;15.224;2023-04-06T01:58:48;-1.50;99.90
16160;DHT22;8185;57.818;15.224;2023-04-06T02:01:15;-1.50;99.90
16160;DHT22;8185;57.818;15.224;2023-04-06T02:03:42;-1.50;99.90
16160;DHT22;8185;57.818;15.224;2023-04-06T02:06:09;-1.50;99.90
16160;DHT22;8185;57.818;15.224;2023-04-06T02:08:37;-1.50;99.90
16160;DHT22;8185;57.818;15.224;2023-04-06T02:11:04;-1.50;99.90
16160;DHT22;8185;57.818;15.224;2023-04-06T02:13:31;-1.50;99.90
16160;DHT22;8185;57.818;15.224;2023-04-06T02:16:01;-1.50;99.90
16160;DHT22;8185;57.818;15.224;2023-04-06T02:18:30;-1.50;99.90
16160;DHT22;8185;57.818;15.224;2023-04-06T02:20:58;-1.50;99.90
16160;DHT22;8185;57.818;15.224;2023-04-06T02:23:25;-1.40;99.90
16160;DHT22;8185;57.818;15.224;2023-04-06T02:25:52;-1.40;99.90
16160;DHT22;8185;57.818;15.224;2023-04-06T02:28:19;-1.40;99.90
16160;DHT22;8185;57.818;15.224;2023-04-06T02:30:46;-1.40;99.90
16160;DHT22;8185;57.818;15.224;2023-04-06T02:33:15;-1.40;99.90
16160;DHT22;8185;57.818;15.224;2023-04-06T02:35:45;-1.40;99.90
16160;DHT22;8185;57.818;15.224;2023-04-06T02:38:12;-1.40;99.90
16160;DHT22;8185;57.818;15.224;2023-04-06T02:40:39;-1.40;99.90
16160;DHT22;8185;57.818;15.224;2023-04-06T02:43:06;-1.40;99.90
16160;DHT22;8185;57.818;15.224;2023-04-06T02:45:34;-1.40;99.90
16160;DHT22;8185;57.818;15.224;2023-04-06T02:48:01;-1.40;99.90
16160;DHT22;8185;57.818;15.224;2023-04-06T02:50:30;-1.40;99.90
16160;DHT22;8185;57.818;15.224;2023-04-06T02:52:57;-1.30;99.90
16160;DHT22;8185;57.818;15.224;2023-04-06T02:55:24;-1.30;99.90
16160;DHT22;8185;57.818;15.224;2023-04-06T02:57:51;-1.30;99.90
16160;DHT22;8185;57.818;15.224;2023-04-06T03:00:19;-1.30;99.90
16160;DHT22;8185;57.818;15.224;2023-04-06T03:02:46;-1.30;99.90
16160;DHT22;8185;57.818;15.224;2023-04-06T03:05:13;-1.30;99.90
16160;DHT22;8185;57.818;15.224;2023-04-06T03:07:42;-1.30;99.90
16160;DHT22;8185;57.818;15.224;2023-04-06T03:10:11;-1.30;99.90
16160;DHT22;8185;57.818;15.224;2023-04-06T03:12:38;-1.30;99.90
16160;DHT22;8185;57.818;15.224;2023-04-06T03:15:08;-1.30;99.90
16160;DHT22;8185;57.818;15.224;2023-04-06T03:17:35;-1.30;99.90
16160;DHT22;8185;57.818;15.224;2023-04-06T03:20:03;-1.30;99.90
16160;DHT22;8185;57.818;15.224;2023-04-06T03:22:30;-1.30;99.90
16160;DHT22;8185;57.818;15.224;2023-04-06T03:24:59;-1.30;99.90
16160;DHT22;8185;57.818;15.224;2023-04-06T03:27:26;-1.20;99.90
16160;DHT22;8185;57.818;15.224;2023-04-06T03:29:53;-1.30;99.90
16160;DHT22;8185;57.818;15.224;2023-04-06T03:32:21;-1.20;99.90
16160;DHT22;8185;57.818;15.224;2023-04-06T03:34:48;-1.20;99.90
16160;DHT22;8185;57.818;15.224;2023-04-06T03:37:15;-1.20;99.90
16160;DHT22;8185;57.818;15.224;2023-04-06T03:39:42;-1.20;99.90
16160;DHT22;8185;57.818;15.224;2023-04-06T03:42:11;-1.20;99.90
16160;DHT22;8185;57.818;15.224;2023-04-06T03:44:40;-1.20;99.90
16160;DHT22;8185;57.818;15.224;2023-04-06T03:47:07;-1.10;99.90
16160;DHT22;8185;57.818;15.224;2023-04-06T03:49:34;-1.10;99.90
16160;DHT22;8185;57.818;15.224;2023-04-06T03:52:04;-1.10;99.90
16160;DHT22;8185;57.818;15.224;2023-04-06T03:54:31;-1.10;99.90
16160;DHT22;8185;57.818;15.224;2023-04-06T03:56:58;-1.10;99.90
16160;DHT22;8185;57.818;15.224;2023-04-06T03:59:27;-1.10;99.90
16160;DHT22;8185;57.818;15.224;2023-04-06T04:01:54;-1.00;99.90
16160;DHT22;8185;57.818;15.224;2023-04-06T04:04:21;-1.10;99.90
16160;DHT22;8185;57.818;15.224;2023-04-06T04:06:49;-1.00;99.90
16160;DHT22;8185;57.818;15.224;2023-04-06T04:09:16;-1.00;99.90
16160;DHT22;8185;57.818;15.224;2023-04-06T04:11:43;-1.00;99.90
16160;DHT22;8185;57.818;15.224;2023-04-06T04:14:10;-1.00;99.90
16160;DHT22;8185;57.818;15.224;2023-04-06T04:16:39;-0.90;99.90
16160;DHT22;8185;57.818;15.224;2023-04-06T04:19:07;-1.00;99.90
16160;DHT22;8185;57.818;15.224;2023-04-06T04:21:42;-1.00;99.90
16160;DHT22;8185;57.818;15.224;2023-04-06T04:24:10;-0.90;99.90
16160;DHT22;8185;57.818;15.224;2023-04-06T04:26:37;-0.90;99.90
16160;DHT22;8185;57.818;15.224;2023-04-06T04:29:05;-0.90;99.90
16160;DHT22;8185;57.818;15.224;2023-04-06T04:31:32;-0.90;99.90
16160;DHT22;8185;57.818;15.224;2023-04-06T04:34:01;-0.90;99.90
16160;DHT22;8185;57.818;15.224;2023-04-06T04:36:29;-0.90;99.90
16160;DHT22;8185;57.818;15.224;2023-04-06T04:38:56;-0.90;99.90
16160;DHT22;8185;57.818;15.224;2023-04-06T04:41:23;-0.80;99.90
16160;DHT22;8185;57.818;15.224;2023-04-06T04:43:51;-0.80;99.90
16160;DHT22;8185;57.818;15.224;2023-04-06T04:46:18;-0.70;99.90
16160;DHT22;8185;57.818;15.224;2023-04-06T04:48:45;-0.70;99.90
16160;DHT22;8185;57.818;15.224;2023-04-06T04:51:15;-0.60;99.90
16160;DHT22;8185;57.818;15.224;2023-04-06T04:53:43;-0.70;99.90
16160;DHT22;8185;57.818;15.224;2023-04-06T04:56:12;-0.60;99.90
16160;DHT22;8185;57.818;15.224;2023-04-06T04:58:39;-0.60;99.90
16160;DHT22;8185;57.818;15.224;2023-04-06T05:01:07;-0.60;99.90
16160;DHT22;8185;57.818;15.224;2023-04-06T05:03:36;-0.50;99.90
16160;DHT22;8185;57.818;15.224;2023-04-06T05:06:04;-0.50;99.90
16160;DHT22;8185;57.818;15.224;2023-04-06T05:08:33;-0.50;99.90
16160;DHT22;8185;57.818;15.224;2023-04-06T05:11:00;-0.50;99.90
16160;DHT22;8185;57.818;15.224;2023-04-06T05:13:29;-0.40;99.90
16160;DHT22;8185;57.818;15.224;2023-04-06T05:15:56;-0.40;99.90
16160;DHT22;8185;57.818;15.224;2023-04-06T05:18:24;-0.40;99.90
16160;DHT22;8185;57.818;15.224;2023-04-06T05:20:51;-0.40;99.90
16160;DHT22;8185;57.818;15.224;2023-04-06T05:23:18;-0.30;99.90
16160;DHT22;8185;57.818;15.224;2023-04-06T05:25:47;-0.30;99.90
16160;DHT22;8185;57.818;15.224;2023-04-06T05:28:14;-0.20;99.90
16160;DHT22;8185;57.818;15.224;2023-04-06T05:30:42;-0.20;99.90
16160;DHT22;8185;57.818;15.224;2023-04-06T05:33:09;-0.10;99.90
16160;DHT22;8185;57.818;15.224;2023-04-06T05:35:37;-0.10;99.90
16160;DHT22;8185;57.818;15.224;2023-04-06T05:38:05;0.00;99.90
16160;DHT22;8185;57.818;15.224;2023-04-06T05:40:32;0.20;99.90
16160;DHT22;8185;57.818;15.224;2023-04-06T05:43:01;0.30;99.90
16160;DHT22;8185;57.818;15.224;2023-04-06T05:45:28;0.50;99.90
16160;DHT22;8185;57.818;15.224;2023-04-06T05:47:55;0.70;99.90
16160;DHT22;8185;57.818;15.224;2023-04-06T05:50:23;0.90;99.90
16160;DHT22;8185;57.818;15.224;2023-04-06T05:52:50;1.00;99.90
16160;DHT22;8185;57.818;15.224;2023-04-06T05:55:17;1.30;99.90
16160;DHT22;8185;57.818;15.224;2023-04-06T05:57:44;1.30;99.90
16160;DHT22;8185;57.818;15.224;2023-04-06T06:00:14;1.40;99.90
16160;DHT22;8185;57.818;15.224;2023-04-06T06:02:41;1.50;99.90
16160;DHT22;8185;57.818;15.224;2023-04-06T06:05:09;1.30;99.90
16160;DHT22;8185;57.818;15.224;2023-04-06T06:07:39;1.30;99.90
16160;DHT22;8185;57.818;15.224;2023-04-06T06:10:07;1.20;99.90
16160;DHT22;8185;57.818;15.224;2023-04-06T06:12:35;1.20;99.90
16160;DHT22;8185;57.818;15.224;2023-04-06T06:15:03;1.30;99.90
16160;DHT22;8185;57.818;15.224;2023-04-06T06:17:32;1.20;99.90
16160;DHT22;8185;57.818;15.224;2023-04-06T06:19:59;1.20;99.90
16160;DHT22;8185;57.818;15.224;2023-04-06T06:22:26;1.20;99.90
16160;DHT22;8185;57.818;15.224;2023-04-06T06:24:54;1.20;99.90
16160;DHT22;8185;57.818;15.224;2023-04-06T06:27:21;1.20;99.90
16160;DHT22;8185;57.818;15.224;2023-04-06T06:29:48;1.20;99.90
16160;DHT22;8185;57.818;15.224;2023-04-06T06:32:15;1.20;99.90
16160;DHT22;8185;57.818;15.224;2023-04-06T06:34:44;1.30;99.90
16160;DHT22;8185;57.818;15.224;2023-04-06T06:37:11;1.20;99.90
16160;DHT22;8185;57.818;15.224;2023-04-06T06:39:39;1.30;99.90
16160;DHT22;8185;57.818;15.224;2023-04-06T06:42:06;1.30;99.90
16160;DHT22;8185;57.818;15.224;2023-04-06T06:44:33;1.30;99.90
16160;DHT22;8185;57.818;15.224;2023-04-06T06:47:00;1.40;99.90
16160;DHT22;8185;57.818;15.224;2023-04-06T06:49:28;1.40;99.90
16160;DHT22;8185;57.818;15.224;2023-04-06T06:51:56;1.40;99.90
16160;DHT22;8185;57.818;15.224;2023-04-06T06:54:24;1.40;99.90
16160;DHT22;8185;57.818;15.224;2023-04-06T06:56:54;1.20;99.90
16160;DHT22;8185;57.818;15.224;2023-04-06T06:59:21;1.30;99.90
16160;DHT22;8185;57.818;15.224;2023-04-06T07:01:49;1.20;99.90
16160;DHT22;8185;57.818;15.224;2023-04-06T07:04:16;1.20;99.90
16160;DHT22;8185;57.818;15.224;2023-04-06T07:06:44;1.20;99.90
16160;DHT22;8185;57.818;15.224;2023-04-06T07:09:12;1.30;99.90
16160;DHT22;8185;57.818;15.224;2023-04-06T07:11:39;1.40;99.90
16160;DHT22;8185;57.818;15.224;2023-04-06T07:14:08;1.60;99.90
16160;DHT22;8185;57.818;15.224;2023-04-06T07:16:35;1.90;99.90
16160;DHT22;8185;57.818;15.224;2023-04-06T07:19:03;2.00;99.90
16160;DHT22;8185;57.818;15.224;2023-04-06T07:21:30;2.10;99.90
16160;DHT22;8185;57.818;15.224;2023-04-06T07:23:57;2.20;99.90
16160;DHT22;8185;57.818;15.224;2023-04-06T07:26:25;2.30;99.90
16160;DHT22;8185;57.818;15.224;2023-04-06T07:28:53;2.30;99.90
16160;DHT22;8185;57.818;15.224;2023-04-06T07:31:20;2.30;99.90
16160;DHT22;8185;57.818;15.224;2023-04-06T07:33:47;2.30;99.90
16160;DHT22;8185;57.818;15.224;2023-04-06T07:36:15;2.40;99.90
16160;DHT22;8185;57.818;15.224;2023-04-06T07:38:43;2.40;99.90
16160;DHT22;8185;57.818;15.224;2023-04-06T07:41:14;2.50;99.90
16160;DHT22;8185;57.818;15.224;2023-04-06T07:43:43;2.60;99.90
16160;DHT22;8185;57.818;15.224;2023-04-06T07:46:10;2.80;99.90
16160;DHT22;8185;57.818;15.224;2023-04-06T07:48:37;2.80;99.90
16160;DHT22;8185;57.818;15.224;2023-04-06T07:51:05;2.70;99.90
16160;DHT22;8185;57.818;15.224;2023-04-06T07:53:32;2.90;99.90
16160;DHT22;8185;57.818;15.224;2023-04-06T07:55:59;2.80;99.90
16160;DHT22;8185;57.818;15.224;2023-04-06T07:58:26;2.70;99.90
16160;DHT22;8185;57.818;15.224;2023-04-06T08:00:55;2.80;99.90
16160;DHT22;8185;57.818;15.224;2023-04-06T08:03:23;2.90;99.90
16160;DHT22;8185;57.818;15.224;2023-04-06T08:05:53;2.80;99.90
16160;DHT22;8185;57.818;15.224;2023-04-06T08:08:21;3.00;99.90
16160;DHT22;8185;57.818;15.224;2023-04-06T08:10:48;2.80;99.90
16160;DHT22;8185;57.818;15.224;2023-04-06T08:13:15;3.00;99.90
16160;DHT22;8185;57.818;15.224;2023-04-06T08:15:44;3.10;99.90
16160;DHT22;8185;57.818;15.224;2023-04-06T08:18:13;3.30;99.90
16160;DHT22;8185;57.818;15.224;2023-04-06T08:20:40;3.30;99.90
16160;DHT22;8185;57.818;15.224;2023-04-06T08:23:08;3.40;99.90
16160;DHT22;8185;57.818;15.224;2023-04-06T08:25:36;3.50;99.90
16160;DHT22;8185;57.818;15.224;2023-04-06T08:28:04;3.60;99.90
16160;DHT22;8185;57.818;15.224;2023-04-06T08:30:31;3.60;99.90
16160;DHT22;8185;57.818;15.224;2023-04-06T08:32:59;3.70;99.90
16160;DHT22;8185;57.818;15.224;2023-04-06T08:35:28;3.80;99.90
16160;DHT22;8185;57.818;15.224;2023-04-06T08:37:56;3.80;99.90
16160;DHT22;8185;57.818;15.224;2023-04-06T08:40:23;3.80;99.90
16160;DHT22;8185;57.818;15.224;2023-04-06T08:42:54;3.90;99.90
16160;DHT22;8185;57.818;15.224;2023-04-06T08:45:21;4.20;99.90
16160;DHT22;8185;57.818;15.224;2023-04-06T08:47:50;4.50;99.90
16160;DHT22;8185;57.818;15.224;2023-04-06T08:50:18;4.70;99.90
16160;DHT22;8185;57.818;15.224;2023-04-06T08:52:48;4.50;99.90
16160;DHT22;8185;57.818;15.224;2023-04-06T08:55:16;4.10;99.90
16160;DHT22;8185;57.818;15.224;2023-04-06T08:57:44;4.20;99.90
16160;DHT22;8185;57.818;15.224;2023-04-06T09:00:14;4.30;99.90
16160;DHT22;8185;57.818;15.224;2023-04-06T09:02:43;4.50;99.90
16160;DHT22;8185;57.818;15.224;2023-04-06T09:05:11;4.50;99.90
16160;DHT22;8185;57.818;15.224;2023-04-06T09:07:39;4.30;99.90
16160;DHT22;8185;57.818;15.224;2023-04-06T09:10:08;4.40;99.90
16160;DHT22;8185;57.818;15.224;2023-04-06T09:12:35;4.50;99.90
16160;DHT22;8185;57.818;15.224;2023-04-06T09:15:03;4.50;99.90
16160;DHT22;8185;57.818;15.224;2023-04-06T09:17:31;4.50;99.90
16160;DHT22;8185;57.818;15.224;2023-04-06T09:20:00;4.70;99.90
16160;DHT22;8185;57.818;15.224;2023-04-06T09:22:36;4.80;99.90
16160;DHT22;8185;57.818;15.224;2023-04-06T09:25:05;5.00;99.90
16160;DHT22;8185;57.818;15.224;2023-04-06T09:27:36;5.20;99.90
16160;DHT22;8185;57.818;15.224;2023-04-06T09:30:05;5.30;99.90
16160;DHT22;8185;57.818;15.224;2023-04-06T09:32:43;5.60;99.90
16160;DHT22;8185;57.818;15.224;2023-04-06T09:35:11;5.50;99.90
16160;DHT22;8185;57.818;15.224;2023-04-06T09:37:39;5.40;99.90
16160;DHT22;8185;57.818;15.224;2023-04-06T09:40:07;5.10;99.90
16160;DHT22;8185;57.818;15.224;2023-04-06T09:42:36;5.30;99.90
16160;DHT22;8185;57.818;15.224;2023-04-06T09:45:04;5.50;99.90
16160;DHT22;8185;57.818;15.224;2023-04-06T09:47:31;5.90;99.90
16160;DHT22;8185;57.818;15.224;2023-04-06T09:50:00;6.10;99.90
16160;DHT22;8185;57.818;15.224;2023-04-06T09:52:32;6.40;99.90
16160;DHT22;8185;57.818;15.224;2023-04-06T09:55:02;6.90;99.90
16160;DHT22;8185;57.818;15.224;2023-04-06T09:57:34;7.60;99.90
16160;DHT22;8185;57.818;15.224;2023-04-06T10:00:06;8.20;99.90
16160;DHT22;8185;57.818;15.224;2023-04-06T10:02:44;8.70;99.90
16160;DHT22;8185;57.818;15.224;2023-04-06T10:05:18;7.90;99.90
16160;DHT22;8185;57.818;15.224;2023-04-06T10:07:47;7.70;99.90
16160;DHT22;8185;57.818;15.224;2023-04-06T10:10:17;8.20;99.90
16160;DHT22;8185;57.818;15.224;2023-04-06T10:12:44;9.10;99.90
16160;DHT22;8185;57.818;15.224;2023-04-06T10:15:13;9.00;99.90
16160;DHT22;8185;57.818;15.224;2023-04-06T10:17:41;9.20;99.90
16160;DHT22;8185;57.818;15.224;2023-04-06T10:20:10;9.50;99.90
16160;DHT22;8185;57.818;15.224;2023-04-06T10:22:44;9.50;99.90
16160;DHT22;8185;57.818;15.224;2023-04-06T10:25:26;9.40;99.90
16160;DHT22;8185;57.818;15.224;2023-04-06T10:28:00;9.60;99.90
16160;DHT22;8185;57.818;15.224;2023-04-06T10:30:29;9.90;99.90
16160;DHT22;8185;57.818;15.224;2023-04-06T10:32:57;9.90;99.90
16160;DHT22;8185;57.818;15.224;2023-04-06T10:35:36;9.90;99.90
16160;DHT22;8185;57.818;15.224;2023-04-06T10:38:05;9.50;99.90
16160;DHT22;8185;57.818;15.224;2023-04-06T10:40:36;10.30;99.90
16160;DHT22;8185;57.818;15.224;2023-04-06T10:43:10;9.30;99.90
16160;DHT22;8185;57.818;15.224;2023-04-06T10:45:40;8.50;99.90
16160;DHT22;8185;57.818;15.224;2023-04-06T10:48:15;7.80;99.90
16160;DHT22;8185;57.818;15.224;2023-04-06T10:50:44;7.40;99.90
16160;DHT22;8185;57.818;15.224;2023-04-06T10:53:19;7.70;99.90
16160;DHT22;8185;57.818;15.224;2023-04-06T10:55:49;8.60;99.90
16160;DHT22;8185;57.818;15.224;2023-04-06T10:58:16;8.50;99.90
16160;DHT22;8185;57.818;15.224;2023-04-06T11:00:45;7.80;99.90
16160;DHT22;8185;57.818;15.224;2023-04-06T11:03:13;7.80;99.90
16160;DHT22;8185;57.818;15.224;2023-04-06T11:05:43;7.40;99.90
16160;DHT22;8185;57.818;15.224;2023-04-06T11:08:22;7.00;99.90
16160;DHT22;8185;57.818;15.224;2023-04-06T11:10:50;7.00;99.90
16160;DHT22;8185;57.818;15.224;2023-04-06T11:13:17;7.00;99.90
16160;DHT22;8185;57.818;15.224;2023-04-06T11:15:46;7.50;99.90
16160;DHT22;8185;57.818;15.224;2023-04-06T11:18:17;8.60;99.90
16160;DHT22;8185;57.818;15.224;2023-04-06T11:20:47;8.20;99.90
16160;DHT22;8185;57.818;15.224;2023-04-06T11:23:22;7.50;99.90
16160;DHT22;8185;57.818;15.224;2023-04-06T11:25:53;7.10;99.90
16160;DHT22;8185;57.818;15.224;2023-04-06T11:28:21;6.50;99.90
16160;DHT22;8185;57.818;15.224;2023-04-06T11:30:49;6.40;99.90
16160;DHT22;8185;57.818;15.224;2023-04-06T11:33:23;6.10;99.90
16160;DHT22;8185;57.818;15.224;2023-04-06T11:35:50;6.00;99.90
16160;DHT22;8185;57.818;15.224;2023-04-06T11:38:18;5.90;99.90
16160;DHT22;8185;57.818;15.224;2023-04-06T11:40:46;5.70;99.90
16160;DHT22;8185;57.818;15.224;2023-04-06T11:43:13;5.50;99.90
16160;DHT22;8185;57.818;15.224;2023-04-06T11:45:42;5.40;99.90
16160;DHT22;8185;57.818;15.224;2023-04-06T11:48:19;5.40;99.90
16160;DHT22;8185;57.818;15.224;2023-04-06T11:50:48;5.20;99.90
16160;DHT22;8185;57.818;15.224;2023-04-06T11:53:22;5.30;99.90
16160;DHT22;8185;57.818;15.224;2023-04-06T11:55:49;5.20;99.90
16160;DHT22;8185;57.818;15.224;2023-04-06T11:58:16;5.30;99.90
16160;DHT22;8185;57.818;15.224;2023-04-06T12:00:43;5.30;99.90
16160;DHT22;8185;57.818;15.224;2023-04-06T12:03:12;5.40;99.90
16160;DHT22;8185;57.818;15.224;2023-04-06T12:05:41;5.50;99.90
16160;DHT22;8185;57.818;15.224;2023-04-06T12:08:08;5.80;99.90
16160;DHT22;8185;57.818;15.224;2023-04-06T12:10:35;6.10;99.90
16160;DHT22;8185;57.818;15.224;2023-04-06T12:13:03;6.80;99.90
16160;DHT22;8185;57.818;15.224;2023-04-06T12:15:31;7.20;99.90
16160;DHT22;8185;57.818;15.224;2023-04-06T12:17:58;7.40;99.90
16160;DHT22;8185;57.818;15.224;2023-04-06T12:20:25;7.40;99.90
16160;DHT22;8185;57.818;15.224;2023-04-06T12:22:54;7.20;99.90
16160;DHT22;8185;57.818;15.224;2023-04-06T12:25:21;6.90;99.90
16160;DHT22;8185;57.818;15.224;2023-04-06T12:27:48;6.70;99.90
16160;DHT22;8185;57.818;15.224;2023-04-06T12:30:16;7.30;99.90
16160;DHT22;8185;57.818;15.224;2023-04-06T12:32:43;7.40;99.90
16160;DHT22;8185;57.818;15.224;2023-04-06T12:35:10;7.30;99.90
16160;DHT22;8185;57.818;15.224;2023-04-06T12:37:41;6.80;99.90
16160;DHT22;8185;57.818;15.224;2023-04-06T12:40:11;6.60;99.90
16160;DHT22;8185;57.818;15.224;2023-04-06T12:42:39;6.60;99.90
16160;DHT22;8185;57.818;15.224;2023-04-06T12:45:08;6.60;99.90
16160;DHT22;8185;57.818;15.224;2023-04-06T12:47:35;6.70;99.90
16160;DHT22;8185;57.818;15.224;2023-04-06T12:50:04;7.20;99.90
16160;DHT22;8185;57.818;15.224;2023-04-06T12:52:32;7.80;99.90
16160;DHT22;8185;57.818;15.224;2023-04-06T12:55:01;7.60;99.90
16160;DHT22;8185;57.818;15.224;2023-04-06T12:57:30;7.50;99.90
16160;DHT22;8185;57.818;15.224;2023-04-06T12:59:57;7.10;99.90
16160;DHT22;8185;57.818;15.224;2023-04-06T13:02:24;6.80;99.90
16160;DHT22;8185;57.818;15.224;2023-04-06T13:04:51;6.70;99.90
16160;DHT22;8185;57.818;15.224;2023-04-06T13:07:19;6.70;99.90
16160;DHT22;8185;57.818;15.224;2023-04-06T13:09:46;6.70;99.90
16160;DHT22;8185;57.818;15.224;2023-04-06T13:12:15;6.70;99.90
16160;DHT22;8185;57.818;15.224;2023-04-06T13:14:43;6.40;99.90
16160;DHT22;8185;57.818;15.224;2023-04-06T13:17:13;6.50;99.90
16160;DHT22;8185;57.818;15.224;2023-04-06T13:19:40;6.60;99.90
16160;DHT22;8185;57.818;15.224;2023-04-06T13:22:07;7.00;99.90
16160;DHT22;8185;57.818;15.224;2023-04-06T13:24:34;7.80;99.90
16160;DHT22;8185;57.818;15.224;2023-04-06T13:27:02;7.80;99.90
16160;DHT22;8185;57.818;15.224;2023-04-06T13:29:29;8.10;99.90
16160;DHT22;8185;57.818;15.224;2023-04-06T13:31:57;7.90;99.90
16160;DHT22;8185;57.818;15.224;2023-04-06T13:34:25;7.50;99.90
16160;DHT22;8185;57.818;15.224;2023-04-06T13:36:52;7.30;99.90
16160;DHT22;8185;57.818;15.224;2023-04-06T13:39:19;8.40;99.90
16160;DHT22;8185;57.818;15.224;2023-04-06T13:41:46;9.30;99.90
16160;DHT22;8185;57.818;15.224;2023-04-06T13:44:13;9.00;99.90
16160;DHT22;8185;57.818;15.224;2023-04-06T13:46:41;8.40;99.90
16160;DHT22;8185;57.818;15.224;2023-04-06T13:49:10;8.00;99.90
16160;DHT22;8185;57.818;15.224;2023-04-06T13:51:37;7.70;99.90
16160;DHT22;8185;57.818;15.224;2023-04-06T13:54:04;7.70;99.90
16160;DHT22;8185;57.818;15.224;2023-04-06T13:56:32;9.10;99.90
16160;DHT22;8185;57.818;15.224;2023-04-06T13:58:59;11.00;99.90
16160;DHT22;8185;57.818;15.224;2023-04-06T14:01:26;10.60;99.90
16160;DHT22;8185;57.818;15.224;2023-04-06T14:03:53;9.00;99.90
16160;DHT22;8185;57.818;15.224;2023-04-06T14:06:22;8.80;99.90
16160;DHT22;8185;57.818;15.224;2023-04-06T14:08:49;8.20;99.90
16160;DHT22;8185;57.818;15.224;2023-04-06T14:11:17;7.60;99.90
16160;DHT22;8185;57.818;15.224;2023-04-06T14:13:44;7.30;99.90
16160;DHT22;8185;57.818;15.224;2023-04-06T14:16:12;6.90;99.90
16160;DHT22;8185;57.818;15.224;2023-04-06T14:18:39;6.80;99.90
16160;DHT22;8185;57.818;15.224;2023-04-06T14:21:06;7.10;99.90
16160;DHT22;8185;57.818;15.224;2023-04-06T14:23:35;7.00;99.90
16160;DHT22;8185;57.818;15.224;2023-04-06T14:26:04;6.80;99.90
16160;DHT22;8185;57.818;15.224;2023-04-06T14:28:32;6.60;99.90
16160;DHT22;8185;57.818;15.224;2023-04-06T14:31:00;6.80;99.90
16160;DHT22;8185;57.818;15.224;2023-04-06T14:33:30;7.70;99.90
16160;DHT22;8185;57.818;15.224;2023-04-06T14:35:57;8.30;99.90
16160;DHT22;8185;57.818;15.224;2023-04-06T14:38:24;10.50;99.90
16160;DHT22;8185;57.818;15.224;2023-04-06T14:40:53;14.20;99.90
16160;DHT22;8185;57.818;15.224;2023-04-06T14:43:21;12.00;99.90
16160;DHT22;8185;57.818;15.224;2023-04-06T14:45:48;12.30;99.90
16160;DHT22;8185;57.818;15.224;2023-04-06T14:48:16;14.10;99.90
16160;DHT22;8185;57.818;15.224;2023-04-06T14:50:52;12.40;99.90
16160;DHT22;8185;57.818;15.224;2023-04-06T14:53:20;10.30;99.90
16160;DHT22;8185;57.818;15.224;2023-04-06T14:55:48;9.30;99.90
16160;DHT22;8185;57.818;15.224;2023-04-06T14:58:18;8.60;99.90
16160;DHT22;8185;57.818;15.224;2023-04-06T15:00:46;8.10;99.90
16160;DHT22;8185;57.818;15.224;2023-04-06T15:03:14;7.50;99.90
16160;DHT22;8185;57.818;15.224;2023-04-06T15:05:41;7.10;99.90
16160;DHT22;8185;57.818;15.224;2023-04-06T15:08:08;7.10;99.90
16160;DHT22;8185;57.818;15.224;2023-04-06T15:10:37;7.10;99.90
16160;DHT22;8185;57.818;15.224;2023-04-06T15:13:04;7.10;99.90
16160;DHT22;8185;57.818;15.224;2023-04-06T15:15:33;7.20;99.90
16160;DHT22;8185;57.818;15.224;2023-04-06T15:18:01;9.80;99.90
16160;DHT22;8185;57.818;15.224;2023-04-06T15:20:29;10.80;99.90
16160;DHT22;8185;57.818;15.224;2023-04-06T15:22:56;13.20;99.90
16160;DHT22;8185;57.818;15.224;2023-04-06T15:25:23;14.90;99.90
16160;DHT22;8185;57.818;15.224;2023-04-06T15:27:51;12.70;99.90
16160;DHT22;8185;57.818;15.224;2023-04-06T15:30:18;10.10;99.90
16160;DHT22;8185;57.818;15.224;2023-04-06T15:32:52;8.90;99.90
16160;DHT22;8185;57.818;15.224;2023-04-06T15:35:20;8.60;99.90
16160;DHT22;8185;57.818;15.224;2023-04-06T15:37:47;8.20;99.90
16160;DHT22;8185;57.818;15.224;2023-04-06T15:40:15;7.50;99.90
16160;DHT22;8185;57.818;15.224;2023-04-06T15:42:42;7.10;99.90
16160;DHT22;8185;57.818;15.224;2023-04-06T15:45:10;6.80;99.90